createdAt,value
2022-07-26T03:02:39.999Z,10.32
2022-07-26T03:05:07.615Z,8.85
2022-07-26T03:07:34.889Z,7.57
2022-07-26T03:10:02.424Z,9.10
2022-07-26T03:12:30.782Z,10.13
2022-07-26T03:14:57.978Z,9.57
2022-07-26T03:17:25.326Z,8.85
2022-07-26T03:19:52.547Z,8.40
2022-07-26T03:22:19.795Z,9.15
2022-07-26T03:24:47.018Z,8.20
2022-07-26T03:27:14.192Z,8.90
2022-07-26T03:29:41.380Z,7.53
2022-07-26T03:32:09.438Z,7.85
2022-07-26T03:34:36.701Z,7.90
2022-07-26T03:37:04.348Z,8.82
2022-07-26T03:39:31.568Z,8.15
2022-07-26T03:41:58.729Z,10.18
2022-07-26T03:44:26.025Z,7.60
2022-07-26T03:46:53.178Z,7.95
2022-07-26T03:49:20.567Z,7.13
2022-07-26T03:51:48.814Z,8.23
2022-07-26T03:54:16.046Z,8.88
2022-07-26T03:56:43.327Z,6.85
2022-07-26T03:59:11.681Z,7.28
2022-07-26T04:01:44.780Z,8.10
2022-07-26T04:04:13.988Z,6.53
2022-07-26T04:06:41.812Z,9.57
2022-07-26T04:09:10.437Z,6.35
2022-07-26T04:11:37.685Z,5.90
2022-07-26T04:14:05.224Z,5.68
2022-07-26T04:16:32.723Z,6.38
2022-07-26T04:19:00.111Z,6.22
2022-07-26T04:21:27.366Z,7.65
2022-07-26T04:23:54.545Z,5.95
2022-07-26T04:26:21.772Z,5.07
2022-07-26T04:28:49.179Z,5.68
2022-07-26T04:31:16.794Z,6.50
2022-07-26T04:33:44.078Z,5.40
2022-07-26T04:36:11.296Z,6.80
2022-07-26T04:38:38.563Z,6.55
2022-07-26T04:41:06.231Z,5.28
2022-07-26T04:43:33.519Z,5.93
2022-07-26T04:46:01.140Z,6.55
2022-07-26T04:48:28.527Z,6.00
2022-07-26T04:50:55.788Z,4.80
2022-07-26T04:53:23.036Z,7.20
2022-07-26T04:55:50.233Z,6.18
2022-07-26T04:58:17.476Z,4.72
2022-07-26T05:01:09.076Z,7.55
2022-07-26T05:03:35.007Z,5.82
2022-07-26T05:06:02.215Z,7.47
2022-07-26T05:08:29.430Z,6.85
2022-07-26T05:10:56.646Z,6.55
2022-07-26T05:13:30.495Z,7.32
2022-07-26T05:15:59.556Z,7.53
2022-07-26T05:18:27.573Z,7.05
2022-07-26T05:20:57.146Z,6.00
2022-07-26T05:23:24.388Z,8.82
2022-07-26T05:25:51.570Z,8.00
2022-07-26T05:28:18.768Z,6.95
2022-07-26T05:30:46.057Z,7.93
2022-07-26T05:33:16.648Z,5.28
2022-07-26T05:35:44.110Z,5.75
2022-07-26T05:38:11.621Z,5.53
2022-07-26T05:40:38.915Z,6.63
2022-07-26T05:43:06.092Z,7.13
2022-07-26T05:45:33.332Z,6.38
2022-07-26T05:48:00.532Z,5.40
2022-07-26T05:50:27.827Z,5.25
2022-07-26T05:52:55.105Z,5.30
2022-07-26T05:55:23.120Z,5.95
2022-07-26T05:57:50.295Z,7.55
2022-07-26T06:00:17.824Z,5.80
2022-07-26T06:02:45.113Z,6.03
2022-07-26T06:05:12.448Z,6.03
2022-07-26T06:07:39.714Z,5.80
2022-07-26T06:10:07.429Z,6.65
2022-07-26T06:12:34.641Z,6.28
2022-07-26T06:15:02.179Z,5.38
2022-07-26T06:17:30.330Z,5.82
2022-07-26T06:19:58.542Z,5.50
2022-07-26T06:22:26.362Z,6.78
2022-07-26T06:24:54.369Z,6.10
2022-07-26T06:27:21.573Z,6.75
2022-07-26T06:29:49.163Z,5.57
2022-07-26T06:32:16.465Z,5.32
2022-07-26T06:34:43.734Z,5.20
2022-07-26T06:37:11.002Z,6.07
2022-07-26T06:39:38.177Z,5.07
2022-07-26T06:42:05.440Z,5.20
2022-07-26T06:44:32.638Z,5.68
2022-07-26T06:46:59.853Z,5.90
2022-07-26T06:49:27.197Z,9.60
2022-07-26T06:51:57.565Z,6.60
2022-07-26T06:54:24.889Z,5.07
2022-07-26T06:56:52.169Z,4.97
2022-07-26T06:59:19.330Z,5.30
2022-07-26T07:01:58.085Z,6.95
2022-07-26T07:04:31.327Z,3.10
2022-07-26T07:07:05.236Z,3.13
2022-07-26T07:09:34.075Z,2.40
2022-07-26T07:12:09.790Z,2.72
2022-07-26T07:14:39.031Z,2.33
2022-07-26T07:17:13.068Z,4.30
2022-07-26T07:19:42.218Z,3.47
2022-07-26T07:22:12.004Z,2.65
2022-07-26T07:24:40.976Z,2.30
2022-07-26T07:27:08.993Z,2.35
2022-07-26T07:29:38.646Z,2.30
2022-07-26T07:32:08.859Z,2.40
2022-07-26T07:34:45.716Z,1.98
2022-07-26T07:37:15.713Z,2.00
2022-07-26T07:39:43.053Z,2.00
2022-07-26T07:42:10.351Z,1.90
2022-07-26T07:44:37.599Z,2.17
2022-07-26T07:47:05.046Z,2.05
2022-07-26T07:49:32.466Z,2.03
2022-07-26T07:51:59.771Z,1.90
2022-07-26T07:54:27.410Z,2.55
2022-07-26T07:56:56.313Z,1.92
2022-07-26T07:59:24.134Z,2.13
2022-07-26T08:01:51.433Z,2.30
2022-07-26T08:04:18.917Z,2.42
2022-07-26T08:06:51.028Z,3.45
2022-07-26T08:09:19.586Z,2.20
2022-07-26T08:11:50.671Z,3.97
2022-07-26T08:14:19.452Z,2.55
2022-07-26T08:16:47.008Z,2.30
2022-07-26T08:19:15.415Z,2.00
2022-07-26T08:21:43.097Z,2.30
2022-07-26T08:24:10.884Z,2.30
2022-07-26T08:26:38.510Z,2.45
2022-07-26T08:29:05.876Z,2.50
2022-07-26T08:31:33.253Z,2.40
2022-07-26T08:34:00.684Z,2.50
2022-07-26T08:36:32.144Z,2.50
2022-07-26T08:39:00.586Z,2.85
2022-07-26T08:41:28.396Z,3.00
2022-07-26T08:43:56.551Z,2.80
2022-07-26T08:46:26.937Z,2.97
2022-07-26T08:48:57.852Z,3.47
2022-07-26T08:51:26.424Z,2.50
2022-07-26T08:54:04.705Z,2.72
2022-07-26T08:56:37.888Z,3.08
2022-07-26T08:59:17.160Z,3.28
2022-07-26T09:01:58.289Z,3.20
2022-07-26T09:04:33.452Z,3.00
2022-07-26T09:07:04.833Z,3.42
2022-07-26T09:09:55.649Z,3.40
2022-07-26T09:12:24.723Z,3.20
2022-07-26T09:14:53.321Z,3.28
2022-07-26T09:17:22.614Z,3.92
2022-07-26T09:20:12.360Z,3.90
2022-07-26T09:23:08.715Z,3.70
2022-07-26T09:25:39.337Z,4.43
2022-07-26T09:28:25.960Z,4.32
2022-07-26T09:30:55.793Z,3.80
2022-07-26T09:33:23.447Z,3.90
2022-07-26T09:36:04.457Z,4.03
2022-07-26T09:38:45.913Z,4.32
2022-07-26T09:41:23.572Z,3.90
2022-07-26T09:43:54.018Z,4.60
2022-07-26T09:46:23.453Z,4.30
2022-07-26T09:51:46.544Z,4.50
2022-07-26T09:54:33.730Z,3.88
2022-07-26T09:57:02.184Z,4.20
2022-07-26T09:59:30.008Z,5.20
2022-07-26T10:01:59.397Z,3.67
2022-07-26T10:04:27.234Z,4.25
2022-07-26T10:06:57.833Z,3.95
2022-07-26T10:09:26.369Z,3.88
2022-07-26T10:12:05.970Z,4.15
2022-07-26T10:14:33.210Z,4.05
2022-07-26T10:17:01.969Z,4.28
2022-07-26T10:19:45.212Z,3.50
2022-07-26T10:22:36.462Z,3.50
2022-07-26T10:25:18.994Z,3.50
2022-07-26T10:27:54.645Z,3.50
2022-07-26T10:30:33.772Z,3.80
2022-07-26T10:33:13.287Z,3.92
2022-07-26T10:35:44.572Z,3.72
2022-07-26T10:38:13.897Z,3.90
2022-07-26T10:41:08.644Z,5.05
2022-07-26T10:43:40.955Z,3.60
2022-07-26T10:46:20.337Z,3.35
2022-07-26T10:48:59.102Z,3.50
2022-07-26T10:51:28.387Z,4.18
2022-07-26T10:54:13.930Z,3.97
2022-07-26T10:56:41.468Z,3.85
2022-07-26T10:59:08.875Z,4.68
2022-07-26T11:01:41.781Z,4.07
2022-07-26T11:04:22.725Z,4.30
2022-07-26T11:06:50.094Z,4.80
2022-07-26T11:09:20.823Z,4.60
2022-07-26T11:11:48.833Z,4.53
2022-07-26T11:14:18.037Z,4.30
2022-07-26T11:16:48.233Z,4.63
2022-07-26T11:19:25.876Z,4.18
2022-07-26T11:21:56.081Z,4.38
2022-07-26T11:24:23.596Z,4.45
2022-07-26T11:26:50.892Z,5.10
2022-07-26T11:29:39.179Z,4.32
2022-07-26T11:32:21.738Z,4.15
2022-07-26T11:35:00.120Z,4.97
2022-07-26T11:37:27.848Z,5.22
2022-07-26T11:39:55.149Z,4.72
2022-07-26T11:42:22.604Z,4.97
2022-07-26T11:44:50.398Z,5.13
2022-07-26T11:47:25.462Z,4.80
2022-07-26T11:50:13.055Z,4.90
2022-07-26T11:52:41.842Z,4.95
2022-07-26T11:55:09.669Z,5.82
2022-07-26T11:57:37.173Z,4.95
2022-07-26T12:00:05.843Z,4.90
2022-07-26T12:02:33.180Z,5.97
2022-07-26T12:05:36.668Z,5.20
2022-07-26T12:08:07.174Z,5.28
2022-07-26T12:10:34.561Z,5.47
2022-07-26T12:13:15.681Z,4.65
2022-07-26T12:15:48.203Z,4.85
2022-07-26T12:18:32.731Z,5.95
2022-07-26T12:21:09.373Z,4.18
2022-07-26T12:23:44.568Z,4.50
2022-07-26T12:26:30.616Z,4.50
2022-07-26T12:28:59.817Z,4.38
2022-07-26T12:31:31.867Z,4.13
2022-07-26T12:33:59.581Z,3.97
2022-07-26T12:36:29.591Z,3.50
2022-07-26T12:38:59.594Z,3.42
2022-07-26T12:41:40.298Z,3.30
2022-07-26T12:44:12.547Z,3.70
2022-07-26T12:46:40.214Z,3.40
2022-07-26T12:49:07.614Z,3.60
2022-07-26T12:51:34.975Z,3.83
2022-07-26T12:54:03.524Z,3.70
2022-07-26T12:56:30.767Z,3.70
2022-07-26T12:59:01.490Z,3.50
2022-07-26T13:01:30.416Z,3.92
2022-07-26T13:03:57.935Z,4.10
2022-07-26T13:06:25.220Z,3.45
2022-07-26T13:08:52.459Z,3.60
2022-07-26T13:11:19.697Z,3.95
2022-07-26T13:13:46.960Z,3.75
2022-07-26T13:16:14.291Z,3.70
2022-07-26T13:18:41.450Z,3.95
2022-07-26T13:21:08.683Z,2.92
2022-07-26T13:23:36.249Z,3.65
2022-07-26T13:26:04.331Z,3.83
2022-07-26T13:28:36.931Z,3.97
2022-07-26T13:31:04.282Z,4.50
2022-07-26T13:33:33.220Z,4.43
2022-07-26T13:36:00.624Z,5.05
2022-07-26T13:38:28.882Z,4.47
2022-07-26T13:40:56.488Z,3.90
2022-07-26T13:43:24.443Z,5.47
2022-07-26T13:45:51.679Z,5.43
2022-07-26T13:48:19.005Z,3.95
2022-07-26T13:50:46.326Z,5.38
2022-07-26T13:53:13.542Z,5.68
2022-07-26T13:55:40.750Z,4.65
2022-07-26T13:58:10.285Z,5.03
2022-07-26T14:00:39.908Z,4.75
2022-07-26T14:03:07.284Z,4.50
2022-07-26T14:05:34.785Z,4.10
2022-07-26T14:08:01.984Z,4.15
2022-07-26T14:10:29.261Z,4.20
2022-07-26T14:12:56.541Z,4.60
2022-07-26T14:15:23.958Z,4.53
2022-07-26T14:17:52.456Z,4.30
2022-07-26T14:20:21.141Z,3.13
2022-07-26T14:22:49.390Z,3.30
2022-07-26T14:25:16.609Z,4.15
2022-07-26T14:27:43.941Z,3.45
2022-07-26T14:30:11.831Z,3.22
2022-07-26T14:32:39.126Z,3.65
2022-07-26T14:35:07.000Z,3.70
2022-07-26T14:37:44.323Z,3.50
2022-07-26T14:40:17.388Z,4.03
2022-07-26T14:42:45.697Z,3.50
2022-07-26T14:45:13.760Z,3.33
2022-07-26T14:47:41.323Z,3.70
2022-07-26T14:50:10.603Z,3.10
2022-07-26T14:52:44.428Z,3.25
2022-07-26T14:55:12.279Z,3.20
2022-07-26T14:57:40.582Z,3.30
2022-07-26T15:00:10.870Z,3.20
2022-07-26T15:02:39.766Z,2.90
2022-07-26T15:05:07.265Z,2.90
2022-07-26T15:07:34.475Z,3.13
2022-07-26T15:10:02.099Z,2.50
2022-07-26T15:12:29.384Z,4.10
2022-07-26T15:14:56.598Z,2.92
2022-07-26T15:17:23.993Z,3.38
2022-07-26T15:19:51.240Z,2.97
2022-07-26T15:22:18.631Z,4.03
2022-07-26T15:24:45.879Z,3.80
2022-07-26T15:27:13.201Z,3.40
2022-07-26T15:29:40.440Z,2.90
2022-07-26T15:32:07.856Z,2.92
2022-07-26T15:34:35.189Z,2.80
2022-07-26T15:37:02.468Z,2.95
2022-07-26T15:39:29.785Z,3.75
2022-07-26T15:41:57.055Z,3.03
2022-07-26T15:44:26.098Z,2.95
2022-07-26T15:46:53.698Z,2.80
2022-07-26T15:49:22.265Z,2.80
2022-07-26T15:51:51.038Z,3.00
2022-07-26T15:54:20.401Z,2.60
2022-07-26T15:56:47.721Z,2.58
2022-07-26T15:59:14.918Z,2.90
2022-07-26T16:01:42.438Z,2.60
2022-07-26T16:04:09.807Z,3.97
2022-07-26T16:06:37.407Z,2.83
2022-07-26T16:09:16.453Z,2.78
2022-07-26T16:11:45.213Z,2.78
2022-07-26T16:14:12.449Z,2.78
2022-07-26T16:16:39.802Z,3.03
2022-07-26T16:19:07.316Z,2.60
2022-07-26T16:21:34.653Z,2.53
2022-07-26T16:24:06.512Z,3.03
2022-07-26T16:26:34.671Z,2.92
2022-07-26T16:29:02.048Z,2.83
2022-07-26T16:31:29.630Z,2.65
2022-07-26T16:33:56.968Z,2.55
2022-07-26T16:36:24.304Z,2.70
2022-07-26T16:38:51.526Z,2.83
2022-07-26T16:41:18.956Z,2.67
2022-07-26T16:43:46.187Z,2.53
2022-07-26T16:46:13.517Z,2.95
2022-07-26T16:48:40.884Z,3.13
2022-07-26T16:51:08.618Z,3.08
2022-07-26T16:53:35.841Z,2.88
2022-07-26T16:56:03.046Z,2.80
2022-07-26T16:58:30.289Z,2.80
2022-07-26T17:00:57.585Z,3.08
2022-07-26T17:03:24.990Z,3.05
2022-07-26T17:05:52.224Z,2.80
2022-07-26T17:08:19.607Z,2.67
2022-07-26T17:10:46.835Z,3.67
2022-07-26T17:13:14.377Z,2.78
2022-07-26T17:15:41.594Z,3.00
2022-07-26T17:18:08.756Z,3.03
2022-07-26T17:20:36.186Z,3.35
2022-07-26T17:23:03.406Z,3.35
2022-07-26T17:25:30.660Z,3.35
2022-07-26T17:27:57.922Z,3.50
2022-07-26T17:30:25.238Z,3.10
2022-07-26T17:32:52.501Z,3.08
2022-07-26T17:35:20.685Z,2.85
2022-07-26T17:37:47.952Z,3.30
2022-07-26T17:40:16.311Z,3.72
2022-07-26T17:42:43.702Z,3.10
2022-07-26T17:45:11.327Z,3.28
2022-07-26T17:47:38.560Z,3.40
2022-07-26T17:50:35.391Z,4.43
2022-07-26T17:52:54.589Z,3.17
2022-07-26T17:55:22.297Z,3.30
2022-07-26T17:57:50.238Z,3.47
2022-07-26T18:00:22.750Z,3.90
2022-07-26T18:02:50.149Z,3.50
2022-07-26T18:05:19.082Z,3.08
2022-07-26T18:07:46.477Z,3.28
2022-07-26T18:10:14.403Z,2.83
2022-07-26T18:12:41.829Z,2.50
2022-07-26T18:15:09.801Z,2.95
2022-07-26T18:17:37.845Z,2.95
2022-07-26T18:20:07.454Z,3.05
2022-07-26T18:22:34.675Z,3.22
2022-07-26T18:25:02.140Z,4.93
2022-07-26T18:27:29.404Z,3.10
2022-07-26T18:29:57.901Z,2.97
2022-07-26T18:32:25.453Z,3.38
2022-07-26T18:34:53.164Z,3.35
2022-07-26T18:37:21.381Z,3.60
2022-07-26T18:39:52.743Z,3.03
2022-07-26T18:42:22.785Z,3.55
2022-07-26T18:44:49.977Z,3.38
2022-07-26T18:47:17.254Z,4.43
2022-07-26T18:49:44.627Z,2.83
2022-07-26T18:52:12.229Z,2.40
2022-07-26T18:54:40.106Z,3.75
2022-07-26T18:57:07.350Z,2.90
2022-07-26T18:59:34.641Z,2.30
2022-07-26T19:02:02.005Z,2.72
2022-07-26T19:04:29.434Z,5.75
2022-07-26T19:06:56.682Z,2.00
2022-07-26T19:09:23.986Z,2.95
2022-07-26T19:11:51.300Z,2.60
2022-07-26T19:14:18.675Z,2.40
2022-07-26T19:16:45.938Z,2.28
2022-07-26T19:19:13.525Z,3.00
2022-07-26T19:21:45.261Z,2.50
2022-07-26T19:24:12.934Z,2.10
2022-07-26T19:26:40.196Z,5.85
2022-07-26T19:29:07.587Z,2.22
2022-07-26T19:31:35.181Z,3.42
2022-07-26T19:34:03.975Z,2.58
2022-07-26T19:36:31.358Z,2.90
2022-07-26T19:39:01.089Z,2.50
2022-07-26T19:41:28.365Z,2.40
2022-07-26T19:43:56.138Z,2.40
2022-07-26T19:46:23.479Z,3.10
2022-07-26T19:48:51.007Z,2.50
2022-07-26T19:51:18.288Z,2.40
2022-07-26T19:53:45.956Z,2.63
2022-07-26T19:56:13.684Z,4.35
2022-07-26T19:58:41.293Z,2.67
2022-07-26T20:01:08.628Z,2.67
2022-07-26T20:03:35.862Z,3.13
2022-07-26T20:06:03.262Z,3.10
2022-07-26T20:08:30.431Z,2.70
2022-07-26T20:10:57.678Z,2.88
2022-07-26T20:13:24.841Z,4.03
2022-07-26T20:15:52.034Z,3.80
2022-07-26T20:18:22.019Z,3.20
2022-07-26T20:20:49.327Z,4.22
2022-07-26T20:23:16.529Z,5.03
2022-07-26T20:25:43.723Z,3.03
2022-07-26T20:28:10.928Z,3.10
2022-07-26T20:30:38.255Z,3.00
2022-07-26T20:33:05.469Z,2.80
2022-07-26T20:35:33.892Z,3.78
2022-07-26T20:38:01.201Z,3.33
2022-07-26T20:40:28.841Z,2.90
2022-07-26T20:42:56.093Z,2.70
2022-07-26T20:45:26.453Z,3.10
2022-07-26T20:47:55.097Z,3.33
2022-07-26T20:50:23.280Z,4.80
2022-07-26T20:52:51.323Z,3.80
2022-07-26T20:55:18.910Z,2.97
2022-07-26T20:57:47.542Z,3.00
2022-07-26T21:00:15.411Z,3.80
